sensor_id;sensor_type;location;lat;lon;timestamp;P1;durP1;ratioP1;P2;durP2;ratioP2
21837;SDS011;11081;45.946;6.140;2023-04-03T00:00:40;5.40;;;3.37;;
21837;SDS011;11081;45.946;6.140;2023-04-03T00:03:08;4.40;;;3.10;;
21837;SDS011;11081;45.946;6.140;2023-04-03T00:05:36;4.07;;;3.47;;
21837;SDS011;11081;45.946;6.140;2023-04-03T00:08:06;4.70;;;3.00;;
21837;SDS011;11081;45.946;6.140;2023-04-03T00:10:35;7.72;;;3.58;;
21837;SDS011;11081;45.946;6.140;2023-04-03T00:13:04;5.57;;;3.47;;
21837;SDS011;11081;45.946;6.140;2023-04-03T00:15:33;12.13;;;3.20;;
21837;SDS011;11081;45.946;6.140;2023-04-03T00:18:02;6.70;;;3.20;;
21837;SDS011;11081;45.946;6.140;2023-04-03T00:20:31;5.05;;;2.75;;
21837;SDS011;11081;45.946;6.140;2023-04-03T00:23:00;4.13;;;3.00;;
21837;SDS011;11081;45.946;6.140;2023-04-03T00:25:30;3.70;;;2.37;;
21837;SDS011;11081;45.946;6.140;2023-04-03T00:27:59;3.40;;;2.00;;
21837;SDS011;11081;45.946;6.140;2023-04-03T00:30:28;2.75;;;2.30;;
21837;SDS011;11081;45.946;6.140;2023-04-03T00:32:56;3.15;;;1.90;;
21837;SDS011;11081;45.946;6.140;2023-04-03T00:35:25;2.55;;;2.17;;
21837;SDS011;11081;45.946;6.140;2023-04-03T00:37:54;3.30;;;2.60;;
21837;SDS011;11081;45.946;6.140;2023-04-03T00:40:23;3.50;;;2.28;;
21837;SDS011;11081;45.946;6.140;2023-04-03T00:42:56;3.80;;;2.20;;
21837;SDS011;11081;45.946;6.140;2023-04-03T00:45:28;3.10;;;2.10;;
21837;SDS011;11081;45.946;6.140;2023-04-03T00:48:02;3.20;;;2.50;;
21837;SDS011;11081;45.946;6.140;2023-04-03T00:50:34;2.60;;;1.97;;
21837;SDS011;11081;45.946;6.140;2023-04-03T00:53:05;2.60;;;1.97;;
21837;SDS011;11081;45.946;6.140;2023-04-03T00:55:35;2.07;;;1.87;;
21837;SDS011;11081;45.946;6.140;2023-04-03T00:58:06;2.60;;;2.03;;
21837;SDS011;11081;45.946;6.140;2023-04-03T01:00:35;4.03;;;1.73;;
21837;SDS011;11081;45.946;6.140;2023-04-03T01:03:07;2.50;;;2.00;;
21837;SDS011;11081;45.946;6.140;2023-04-03T01:05:37;3.97;;;2.10;;
21837;SDS011;11081;45.946;6.140;2023-04-03T01:08:06;5.22;;;3.83;;
21837;SDS011;11081;45.946;6.140;2023-04-03T01:10:34;8.77;;;5.90;;
21837;SDS011;11081;45.946;6.140;2023-04-03T01:13:02;8.15;;;6.25;;
21837;SDS011;11081;45.946;6.140;2023-04-03T01:15:47;13.73;;;7.22;;
21837;SDS011;11081;45.946;6.140;2023-04-03T01:18:15;10.52;;;7.38;;
21837;SDS011;11081;45.946;6.140;2023-04-03T01:23:58;5.67;;;4.33;;
21837;SDS011;11081;45.946;6.140;2023-04-03T01:26:37;4.23;;;2.30;;
21837;SDS011;11081;45.946;6.140;2023-04-03T01:29:08;2.60;;;2.30;;
21837;SDS011;11081;45.946;6.140;2023-04-03T01:34:28;2.92;;;2.60;;
21837;SDS011;11081;45.946;6.140;2023-04-03T01:36:57;2.70;;;2.10;;
21837;SDS011;11081;45.946;6.140;2023-04-03T01:39:25;4.30;;;1.90;;
21837;SDS011;11081;45.946;6.140;2023-04-03T01:41:53;3.43;;;2.20;;
21837;SDS011;11081;45.946;6.140;2023-04-03T01:44:32;2.87;;;2.17;;
21837;SDS011;11081;45.946;6.140;2023-04-03T01:47:02;4.63;;;3.70;;
21837;SDS011;11081;45.946;6.140;2023-04-03T01:49:33;6.93;;;4.30;;
21837;SDS011;11081;45.946;6.140;2023-04-03T01:52:01;6.47;;;4.25;;
21837;SDS011;11081;45.946;6.140;2023-04-03T01:54:29;6.25;;;4.75;;
21837;SDS011;11081;45.946;6.140;2023-04-03T01:56:57;7.43;;;4.40;;
21837;SDS011;11081;45.946;6.140;2023-04-03T01:59:26;5.45;;;4.65;;
21837;SDS011;11081;45.946;6.140;2023-04-03T02:01:54;3.85;;;3.28;;
21837;SDS011;11081;45.946;6.140;2023-04-03T02:04:24;4.35;;;2.97;;
21837;SDS011;11081;45.946;6.140;2023-04-03T02:06:52;6.32;;;4.72;;
21837;SDS011;11081;45.946;6.140;2023-04-03T02:09:20;7.07;;;4.87;;
21837;SDS011;11081;45.946;6.140;2023-04-03T02:11:48;8.20;;;5.37;;
21837;SDS011;11081;45.946;6.140;2023-04-03T02:14:16;8.88;;;5.07;;
21837;SDS011;11081;45.946;6.140;2023-04-03T02:16:44;8.17;;;4.87;;
21837;SDS011;11081;45.946;6.140;2023-04-03T02:19:13;6.07;;;4.67;;
21837;SDS011;11081;45.946;6.140;2023-04-03T02:21:42;9.93;;;5.00;;
21837;SDS011;11081;45.946;6.140;2023-04-03T02:24:10;7.97;;;5.73;;
21837;SDS011;11081;45.946;6.140;2023-04-03T02:26:38;11.17;;;5.40;;
21837;SDS011;11081;45.946;6.140;2023-04-03T02:29:06;5.97;;;4.57;;
21837;SDS011;11081;45.946;6.140;2023-04-03T02:31:34;6.28;;;4.55;;
21837;SDS011;11081;45.946;6.140;2023-04-03T02:34:04;5.80;;;3.40;;
21837;SDS011;11081;45.946;6.140;2023-04-03T02:36:33;5.03;;;3.78;;
21837;SDS011;11081;45.946;6.140;2023-04-03T02:39:06;5.00;;;3.22;;
21837;SDS011;11081;45.946;6.140;2023-04-03T02:41:34;5.07;;;4.00;;
21837;SDS011;11081;45.946;6.140;2023-04-03T02:44:08;9.30;;;5.37;;
21837;SDS011;11081;45.946;6.140;2023-04-03T02:46:37;8.00;;;5.63;;
21837;SDS011;11081;45.946;6.140;2023-04-03T02:49:06;7.90;;;5.07;;
21837;SDS011;11081;45.946;6.140;2023-04-03T02:51:34;5.63;;;4.63;;
21837;SDS011;11081;45.946;6.140;2023-04-03T02:54:02;5.87;;;4.47;;
21837;SDS011;11081;45.946;6.140;2023-04-03T02:56:34;7.57;;;4.73;;
21837;SDS011;11081;45.946;6.140;2023-04-03T02:59:02;7.83;;;4.77;;
21837;SDS011;11081;45.946;6.140;2023-04-03T03:01:33;6.07;;;4.47;;
21837;SDS011;11081;45.946;6.140;2023-04-03T03:04:02;6.57;;;4.70;;
21837;SDS011;11081;45.946;6.140;2023-04-03T03:06:30;6.93;;;4.90;;
21837;SDS011;11081;45.946;6.140;2023-04-03T03:08:58;8.63;;;4.73;;
21837;SDS011;11081;45.946;6.140;2023-04-03T03:11:26;7.93;;;4.43;;
21837;SDS011;11081;45.946;6.140;2023-04-03T03:13:56;10.05;;;4.20;;
21837;SDS011;11081;45.946;6.140;2023-04-03T03:16:24;6.57;;;4.38;;
21837;SDS011;11081;45.946;6.140;2023-04-03T03:18:53;6.95;;;4.50;;
21837;SDS011;11081;45.946;6.140;2023-04-03T03:21:23;5.25;;;4.25;;
21837;SDS011;11081;45.946;6.140;2023-04-03T03:23:51;4.90;;;3.87;;
21837;SDS011;11081;45.946;6.140;2023-04-03T03:26:19;5.90;;;4.30;;
21837;SDS011;11081;45.946;6.140;2023-04-03T03:28:47;6.13;;;4.30;;
21837;SDS011;11081;45.946;6.140;2023-04-03T03:31:17;6.00;;;4.30;;
21837;SDS011;11081;45.946;6.140;2023-04-03T03:33:45;5.87;;;4.30;;
21837;SDS011;11081;45.946;6.140;2023-04-03T03:36:13;4.28;;;3.50;;
21837;SDS011;11081;45.946;6.140;2023-04-03T03:38:41;4.15;;;3.50;;
21837;SDS011;11081;45.946;6.140;2023-04-03T03:41:09;5.63;;;3.80;;
21837;SDS011;11081;45.946;6.140;2023-04-03T03:43:39;5.33;;;3.80;;
21837;SDS011;11081;45.946;6.140;2023-04-03T03:46:07;4.80;;;3.93;;
21837;SDS011;11081;45.946;6.140;2023-04-03T03:48:37;5.43;;;4.23;;
21837;SDS011;11081;45.946;6.140;2023-04-03T03:51:05;5.57;;;3.90;;
21837;SDS011;11081;45.946;6.140;2023-04-03T03:53:36;4.22;;;3.78;;
21837;SDS011;11081;45.946;6.140;2023-04-03T03:56:07;4.03;;;3.63;;
21837;SDS011;11081;45.946;6.140;2023-04-03T03:58:38;6.50;;;3.90;;
21837;SDS011;11081;45.946;6.140;2023-04-03T04:01:07;4.90;;;3.63;;
21837;SDS011;11081;45.946;6.140;2023-04-03T04:03:42;4.82;;;3.47;;
21837;SDS011;11081;45.946;6.140;2023-04-03T04:06:15;4.47;;;3.57;;
21837;SDS011;11081;45.946;6.140;2023-04-03T04:08:43;9.63;;;4.05;;
21837;SDS011;11081;45.946;6.140;2023-04-03T04:11:12;6.30;;;3.72;;
21837;SDS011;11081;45.946;6.140;2023-04-03T04:13:41;5.38;;;3.92;;
21837;SDS011;11081;45.946;6.140;2023-04-03T04:16:12;6.13;;;3.30;;
21837;SDS011;11081;45.946;6.140;2023-04-03T04:18:40;5.23;;;3.70;;
21837;SDS011;11081;45.946;6.140;2023-04-03T04:21:09;4.53;;;3.55;;
21837;SDS011;11081;45.946;6.140;2023-04-03T04:23:38;3.65;;;2.92;;
21837;SDS011;11081;45.946;6.140;2023-04-03T04:26:07;3.80;;;3.03;;
21837;SDS011;11081;45.946;6.140;2023-04-03T04:28:37;6.00;;;3.00;;
21837;SDS011;11081;45.946;6.140;2023-04-03T04:31:06;5.40;;;3.37;;
21837;SDS011;11081;45.946;6.140;2023-04-03T04:33:35;3.63;;;3.10;;
21837;SDS011;11081;45.946;6.140;2023-04-03T04:36:04;5.57;;;4.10;;
21837;SDS011;11081;45.946;6.140;2023-04-03T04:38:35;3.87;;;3.03;;
21837;SDS011;11081;45.946;6.140;2023-04-03T04:41:05;4.45;;;3.60;;
21837;SDS011;11081;45.946;6.140;2023-04-03T04:43:33;3.80;;;3.10;;
21837;SDS011;11081;45.946;6.140;2023-04-03T04:46:02;4.70;;;3.37;;
21837;SDS011;11081;45.946;6.140;2023-04-03T04:48:35;4.03;;;3.23;;
21837;SDS011;11081;45.946;6.140;2023-04-03T04:51:06;5.30;;;3.50;;
21837;SDS011;11081;45.946;6.140;2023-04-03T04:53:37;3.73;;;3.10;;
21837;SDS011;11081;45.946;6.140;2023-04-03T04:56:07;5.37;;;3.17;;
21837;SDS011;11081;45.946;6.140;2023-04-03T04:58:36;3.73;;;3.03;;
21837;SDS011;11081;45.946;6.140;2023-04-03T05:01:06;4.78;;;3.47;;
21837;SDS011;11081;45.946;6.140;2023-04-03T05:03:43;5.43;;;3.13;;
21837;SDS011;11081;45.946;6.140;2023-04-03T05:06:11;6.78;;;3.40;;
21837;SDS011;11081;45.946;6.140;2023-04-03T05:08:40;5.25;;;2.90;;
21837;SDS011;11081;45.946;6.140;2023-04-03T05:11:08;4.07;;;3.47;;
21837;SDS011;11081;45.946;6.140;2023-04-03T05:13:37;4.80;;;3.10;;
21837;SDS011;11081;45.946;6.140;2023-04-03T05:16:06;3.90;;;3.50;;
21837;SDS011;11081;45.946;6.140;2023-04-03T05:18:35;4.68;;;3.17;;
21837;SDS011;11081;45.946;6.140;2023-04-03T05:21:08;3.65;;;3.15;;
21837;SDS011;11081;45.946;6.140;2023-04-03T05:23:36;4.70;;;3.30;;
21837;SDS011;11081;45.946;6.140;2023-04-03T05:26:06;4.20;;;3.17;;
21837;SDS011;11081;45.946;6.140;2023-04-03T05:28:34;4.70;;;3.40;;
21837;SDS011;11081;45.946;6.140;2023-04-03T05:31:05;5.22;;;3.58;;
21837;SDS011;11081;45.946;6.140;2023-04-03T05:33:35;4.87;;;3.37;;
21837;SDS011;11081;45.946;6.140;2023-04-03T05:36:06;5.57;;;3.10;;
21837;SDS011;11081;45.946;6.140;2023-04-03T05:38:41;3.90;;;3.45;;
21837;SDS011;11081;45.946;6.140;2023-04-03T05:41:10;4.43;;;3.07;;
21837;SDS011;11081;45.946;6.140;2023-04-03T05:43:39;5.67;;;3.40;;
21837;SDS011;11081;45.946;6.140;2023-04-03T05:46:09;4.47;;;3.57;;
21837;SDS011;11081;45.946;6.140;2023-04-03T05:48:40;5.40;;;2.93;;
21837;SDS011;11081;45.946;6.140;2023-04-03T05:51:13;3.92;;;3.33;;
21837;SDS011;11081;45.946;6.140;2023-04-03T05:53:44;3.93;;;3.30;;
21837;SDS011;11081;45.946;6.140;2023-04-03T05:56:14;4.63;;;2.78;;
21837;SDS011;11081;45.946;6.140;2023-04-03T05:58:42;4.30;;;3.10;;
21837;SDS011;11081;45.946;6.140;2023-04-03T06:01:10;3.78;;;3.00;;
21837;SDS011;11081;45.946;6.140;2023-04-03T06:03:39;3.53;;;3.00;;
21837;SDS011;11081;45.946;6.140;2023-04-03T06:06:10;5.40;;;3.10;;
21837;SDS011;11081;45.946;6.140;2023-04-03T06:08:40;3.22;;;2.63;;
21837;SDS011;11081;45.946;6.140;2023-04-03T06:11:10;3.60;;;2.97;;
21837;SDS011;11081;45.946;6.140;2023-04-03T06:13:40;3.72;;;2.88;;
21837;SDS011;11081;45.946;6.140;2023-04-03T06:16:08;3.05;;;2.47;;
21837;SDS011;11081;45.946;6.140;2023-04-03T06:18:38;3.92;;;3.05;;
21837;SDS011;11081;45.946;6.140;2023-04-03T06:21:08;3.70;;;2.97;;
21837;SDS011;11081;45.946;6.140;2023-04-03T06:23:36;4.05;;;2.63;;
21837;SDS011;11081;45.946;6.140;2023-04-03T06:26:04;3.87;;;2.97;;
21837;SDS011;11081;45.946;6.140;2023-04-03T06:28:33;3.93;;;3.00;;
21837;SDS011;11081;45.946;6.140;2023-04-03T06:31:02;5.57;;;2.83;;
21837;SDS011;11081;45.946;6.140;2023-04-03T06:33:30;3.33;;;2.63;;
21837;SDS011;11081;45.946;6.140;2023-04-03T06:35:58;2.87;;;2.27;;
21837;SDS011;11081;45.946;6.140;2023-04-03T06:38:26;4.35;;;2.47;;
21837;SDS011;11081;45.946;6.140;2023-04-03T06:40:54;3.08;;;2.38;;
21837;SDS011;11081;45.946;6.140;2023-04-03T06:43:23;3.67;;;2.70;;
21837;SDS011;11081;45.946;6.140;2023-04-03T06:45:51;2.30;;;1.80;;
21837;SDS011;11081;45.946;6.140;2023-04-03T06:48:21;2.47;;;1.77;;
21837;SDS011;11081;45.946;6.140;2023-04-03T06:50:49;3.28;;;1.95;;
21837;SDS011;11081;45.946;6.140;2023-04-03T06:53:17;2.60;;;1.90;;
21837;SDS011;11081;45.946;6.140;2023-04-03T06:55:45;2.22;;;1.52;;
21837;SDS011;11081;45.946;6.140;2023-04-03T06:58:13;2.05;;;1.48;;
21837;SDS011;11081;45.946;6.140;2023-04-03T07:00:45;2.85;;;1.88;;
21837;SDS011;11081;45.946;6.140;2023-04-03T07:03:13;1.75;;;1.50;;
21837;SDS011;11081;45.946;6.140;2023-04-03T07:05:44;2.08;;;1.40;;
21837;SDS011;11081;45.946;6.140;2023-04-03T07:08:12;2.40;;;1.67;;
21837;SDS011;11081;45.946;6.140;2023-04-03T07:10:40;2.03;;;1.52;;
21837;SDS011;11081;45.946;6.140;2023-04-03T07:13:08;1.90;;;1.60;;
21837;SDS011;11081;45.946;6.140;2023-04-03T07:15:36;1.85;;;1.50;;
21837;SDS011;11081;45.946;6.140;2023-04-03T07:18:04;2.25;;;1.80;;
21837;SDS011;11081;45.946;6.140;2023-04-03T07:20:32;2.92;;;1.77;;
21837;SDS011;11081;45.946;6.140;2023-04-03T07:23:02;1.90;;;1.60;;
21837;SDS011;11081;45.946;6.140;2023-04-03T07:25:30;3.28;;;1.55;;
21837;SDS011;11081;45.946;6.140;2023-04-03T07:28:00;2.60;;;1.83;;
21837;SDS011;11081;45.946;6.140;2023-04-03T07:30:28;2.37;;;1.70;;
21837;SDS011;11081;45.946;6.140;2023-04-03T07:32:56;1.80;;;1.50;;
21837;SDS011;11081;45.946;6.140;2023-04-03T07:35:24;1.50;;;1.40;;
21837;SDS011;11081;45.946;6.140;2023-04-03T07:37:52;2.05;;;1.60;;
21837;SDS011;11081;45.946;6.140;2023-04-03T07:40:21;2.13;;;1.60;;
21837;SDS011;11081;45.946;6.140;2023-04-03T07:42:49;3.05;;;1.75;;
21837;SDS011;11081;45.946;6.140;2023-04-03T07:45:17;2.72;;;2.10;;
21837;SDS011;11081;45.946;6.140;2023-04-03T07:47:46;2.83;;;1.75;;
21837;SDS011;11081;45.946;6.140;2023-04-03T07:50:14;2.72;;;2.13;;
21837;SDS011;11081;45.946;6.140;2023-04-03T07:52:42;3.47;;;2.30;;
21837;SDS011;11081;45.946;6.140;2023-04-03T07:55:11;2.53;;;2.13;;
21837;SDS011;11081;45.946;6.140;2023-04-03T07:57:40;2.58;;;2.30;;
21837;SDS011;11081;45.946;6.140;2023-04-03T08:00:09;2.60;;;2.40;;
21837;SDS011;11081;45.946;6.140;2023-04-03T08:02:40;3.47;;;2.70;;
21837;SDS011;11081;45.946;6.140;2023-04-03T08:05:08;3.53;;;2.67;;
21837;SDS011;11081;45.946;6.140;2023-04-03T08:07:36;3.63;;;2.58;;
21837;SDS011;11081;45.946;6.140;2023-04-03T08:10:05;3.33;;;2.55;;
21837;SDS011;11081;45.946;6.140;2023-04-03T08:12:34;3.42;;;2.95;;
21837;SDS011;11081;45.946;6.140;2023-04-03T08:15:05;3.55;;;2.60;;
21837;SDS011;11081;45.946;6.140;2023-04-03T08:17:34;4.55;;;2.60;;
21837;SDS011;11081;45.946;6.140;2023-04-03T08:20:03;3.88;;;2.83;;
21837;SDS011;11081;45.946;6.140;2023-04-03T08:22:33;3.42;;;2.78;;
21837;SDS011;11081;45.946;6.140;2023-04-03T08:25:01;3.45;;;2.85;;
21837;SDS011;11081;45.946;6.140;2023-04-03T08:27:29;4.63;;;3.30;;
21837;SDS011;11081;45.946;6.140;2023-04-03T08:29:59;4.03;;;3.05;;
21837;SDS011;11081;45.946;6.140;2023-04-03T08:32:29;3.03;;;2.60;;
21837;SDS011;11081;45.946;6.140;2023-04-03T08:34:57;4.55;;;3.53;;
21837;SDS011;11081;45.946;6.140;2023-04-03T08:37:25;3.90;;;3.33;;
21837;SDS011;11081;45.946;6.140;2023-04-03T08:39:53;4.22;;;3.60;;
21837;SDS011;11081;45.946;6.140;2023-04-03T08:42:25;4.68;;;3.53;;
21837;SDS011;11081;45.946;6.140;2023-04-03T08:45:07;4.47;;;3.05;;
21837;SDS011;11081;45.946;6.140;2023-04-03T08:47:40;4.72;;;3.60;;
21837;SDS011;11081;45.946;6.140;2023-04-03T08:50:12;4.20;;;3.58;;
21837;SDS011;11081;45.946;6.140;2023-04-03T08:52:44;4.13;;;3.00;;
21837;SDS011;11081;45.946;6.140;2023-04-03T08:55:19;5.35;;;3.20;;
21837;SDS011;11081;45.946;6.140;2023-04-03T08:57:51;3.08;;;2.78;;
21837;SDS011;11081;45.946;6.140;2023-04-03T09:00:26;4.35;;;3.33;;
21837;SDS011;11081;45.946;6.140;2023-04-03T09:03:01;3.85;;;3.33;;
21837;SDS011;11081;45.946;6.140;2023-04-03T09:05:32;4.00;;;3.33;;
21837;SDS011;11081;45.946;6.140;2023-04-03T09:08:12;6.30;;;3.88;;
21837;SDS011;11081;45.946;6.140;2023-04-03T09:10:49;5.13;;;3.90;;
21837;SDS011;11081;45.946;6.140;2023-04-03T09:13:22;5.30;;;3.58;;
21837;SDS011;11081;45.946;6.140;2023-04-03T09:15:54;5.95;;;3.63;;
21837;SDS011;11081;45.946;6.140;2023-04-03T09:18:26;3.65;;;3.08;;
21837;SDS011;11081;45.946;6.140;2023-04-03T09:21:00;4.70;;;3.20;;
21837;SDS011;11081;45.946;6.140;2023-04-03T09:23:34;6.10;;;3.50;;
21837;SDS011;11081;45.946;6.140;2023-04-03T09:26:13;4.35;;;3.60;;
21837;SDS011;11081;45.946;6.140;2023-04-03T09:28:44;3.65;;;3.08;;
21837;SDS011;11081;45.946;6.140;2023-04-03T09:31:18;3.63;;;3.03;;
21837;SDS011;11081;45.946;6.140;2023-04-03T09:33:52;6.88;;;3.05;;
21837;SDS011;11081;45.946;6.140;2023-04-03T09:36:40;3.25;;;2.95;;
21837;SDS011;11081;45.946;6.140;2023-04-03T09:39:11;3.83;;;2.90;;
21837;SDS011;11081;45.946;6.140;2023-04-03T09:41:41;4.40;;;3.30;;
21837;SDS011;11081;45.946;6.140;2023-04-03T09:46:57;5.68;;;3.47;;
21837;SDS011;11081;45.946;6.140;2023-04-03T09:49:28;3.20;;;2.80;;
21837;SDS011;11081;45.946;6.140;2023-04-03T09:51:56;3.03;;;2.60;;
21837;SDS011;11081;45.946;6.140;2023-04-03T09:54:25;3.85;;;3.25;;
21837;SDS011;11081;45.946;6.140;2023-04-03T09:57:11;3.60;;;3.05;;
21837;SDS011;11081;45.946;6.140;2023-04-03T09:59:42;3.88;;;2.90;;
21837;SDS011;11081;45.946;6.140;2023-04-03T10:02:21;4.22;;;3.42;;
21837;SDS011;11081;45.946;6.140;2023-04-03T10:04:57;4.07;;;3.30;;
21837;SDS011;11081;45.946;6.140;2023-04-03T10:07:36;5.05;;;2.90;;
21837;SDS011;11081;45.946;6.140;2023-04-03T10:10:16;3.92;;;2.88;;
21837;SDS011;11081;45.946;6.140;2023-04-03T10:12:46;4.10;;;3.03;;
21837;SDS011;11081;45.946;6.140;2023-04-03T10:15:15;4.28;;;2.97;;
21837;SDS011;11081;45.946;6.140;2023-04-03T10:17:51;3.20;;;2.70;;
21837;SDS011;11081;45.946;6.140;2023-04-03T10:20:32;5.60;;;2.60;;
21837;SDS011;11081;45.946;6.140;2023-04-03T10:23:14;3.53;;;2.90;;
21837;SDS011;11081;45.946;6.140;2023-04-03T10:25:48;3.50;;;2.85;;
21837;SDS011;11081;45.946;6.140;2023-04-03T10:28:29;3.70;;;2.80;;
21837;SDS011;11081;45.946;6.140;2023-04-03T10:31:06;3.42;;;2.97;;
21837;SDS011;11081;45.946;6.140;2023-04-03T10:33:51;4.15;;;2.75;;
21837;SDS011;11081;45.946;6.140;2023-04-03T10:36:27;3.35;;;2.90;;
21837;SDS011;11081;45.946;6.140;2023-04-03T10:39:08;3.47;;;2.72;;
21837;SDS011;11081;45.946;6.140;2023-04-03T10:41:47;2.92;;;2.53;;
21837;SDS011;11081;45.946;6.140;2023-04-03T10:44:44;3.88;;;3.45;;
21837;SDS011;11081;45.946;6.140;2023-04-03T10:47:21;5.95;;;3.20;;
21837;SDS011;11081;45.946;6.140;2023-04-03T10:49:54;3.63;;;2.90;;
21837;SDS011;11081;45.946;6.140;2023-04-03T10:52:30;3.05;;;2.75;;
21837;SDS011;11081;45.946;6.140;2023-04-03T10:55:09;2.83;;;2.42;;
21837;SDS011;11081;45.946;6.140;2023-04-03T10:57:52;3.22;;;2.60;;
21837;SDS011;11081;45.946;6.140;2023-04-03T11:00:25;2.88;;;2.58;;
21837;SDS011;11081;45.946;6.140;2023-04-03T11:02:58;2.85;;;2.50;;
21837;SDS011;11081;45.946;6.140;2023-04-03T11:05:30;3.22;;;2.80;;
21837;SDS011;11081;45.946;6.140;2023-04-03T11:08:04;3.22;;;2.67;;
21837;SDS011;11081;45.946;6.140;2023-04-03T11:10:40;3.15;;;2.75;;
21837;SDS011;11081;45.946;6.140;2023-04-03T11:13:11;3.78;;;2.28;;
21837;SDS011;11081;45.946;6.140;2023-04-03T11:15:42;3.03;;;2.35;;
21837;SDS011;11081;45.946;6.140;2023-04-03T11:18:11;3.53;;;2.45;;
21837;SDS011;11081;45.946;6.140;2023-04-03T11:20:44;3.05;;;2.60;;
21837;SDS011;11081;45.946;6.140;2023-04-03T11:23:21;2.63;;;2.42;;
21837;SDS011;11081;45.946;6.140;2023-04-03T11:25:57;3.38;;;2.95;;
21837;SDS011;11081;45.946;6.140;2023-04-03T11:28:38;4.05;;;2.40;;
21837;SDS011;11081;45.946;6.140;2023-04-03T11:31:13;3.47;;;2.90;;
21837;SDS011;11081;45.946;6.140;2023-04-03T11:33:55;3.92;;;2.90;;
21837;SDS011;11081;45.946;6.140;2023-04-03T11:36:33;4.88;;;2.40;;
21837;SDS011;11081;45.946;6.140;2023-04-03T11:39:15;3.03;;;2.40;;
21837;SDS011;11081;45.946;6.140;2023-04-03T11:41:48;3.20;;;2.60;;
21837;SDS011;11081;45.946;6.140;2023-04-03T11:44:29;3.50;;;2.85;;
21837;SDS011;11081;45.946;6.140;2023-04-03T11:47:01;3.28;;;2.70;;
21837;SDS011;11081;45.946;6.140;2023-04-03T11:55:42;2.45;;;2.25;;
21837;SDS011;11081;45.946;6.140;2023-04-03T11:58:13;2.95;;;2.30;;
21837;SDS011;11081;45.946;6.140;2023-04-03T12:03:35;7.05;;;2.50;;
21837;SDS011;11081;45.946;6.140;2023-04-03T12:06:43;3.05;;;2.70;;
21837;SDS011;11081;45.946;6.140;2023-04-03T12:09:22;4.13;;;2.70;;
21837;SDS011;11081;45.946;6.140;2023-04-03T12:11:53;2.83;;;2.50;;
21837;SDS011;11081;45.946;6.140;2023-04-03T12:14:23;3.08;;;2.72;;
21837;SDS011;11081;45.946;6.140;2023-04-03T12:16:53;3.47;;;2.63;;
21837;SDS011;11081;45.946;6.140;2023-04-03T12:19:31;2.78;;;2.33;;
21837;SDS011;11081;45.946;6.140;2023-04-03T12:22:11;2.95;;;2.38;;
21837;SDS011;11081;45.946;6.140;2023-04-03T12:24:42;3.22;;;2.10;;
21837;SDS011;11081;45.946;6.140;2023-04-03T12:27:26;4.22;;;2.60;;
21837;SDS011;11081;45.946;6.140;2023-04-03T12:30:00;3.25;;;2.80;;
21837;SDS011;11081;45.946;6.140;2023-04-03T12:32:48;4.00;;;2.50;;
21837;SDS011;11081;45.946;6.140;2023-04-03T12:35:40;2.88;;;2.45;;
21837;SDS011;11081;45.946;6.140;2023-04-03T12:41:30;6.30;;;2.90;;
21837;SDS011;11081;45.946;6.140;2023-04-03T12:44:11;4.32;;;2.70;;
21837;SDS011;11081;45.946;6.140;2023-04-03T12:46:50;4.38;;;3.05;;
21837;SDS011;11081;45.946;6.140;2023-04-03T12:49:26;3.55;;;2.30;;
21837;SDS011;11081;45.946;6.140;2023-04-03T12:52:03;4.78;;;2.45;;
21837;SDS011;11081;45.946;6.140;2023-04-03T12:54:35;2.80;;;2.53;;
21837;SDS011;11081;45.946;6.140;2023-04-03T12:57:09;2.65;;;2.22;;
21837;SDS011;11081;45.946;6.140;2023-04-03T12:59:40;4.65;;;2.13;;
21837;SDS011;11081;45.946;6.140;2023-04-03T13:02:23;2.70;;;2.38;;
21837;SDS011;11081;45.946;6.140;2023-04-03T13:04:53;2.90;;;2.10;;
21837;SDS011;11081;45.946;6.140;2023-04-03T13:07:25;2.55;;;2.30;;
21837;SDS011;11081;45.946;6.140;2023-04-03T13:09:59;2.67;;;1.98;;
21837;SDS011;11081;45.946;6.140;2023-04-03T13:12:31;3.08;;;2.47;;
21837;SDS011;11081;45.946;6.140;2023-04-03T13:15:11;3.10;;;2.00;;
21837;SDS011;11081;45.946;6.140;2023-04-03T13:17:42;2.67;;;2.35;;
21837;SDS011;11081;45.946;6.140;2023-04-03T13:20:15;7.90;;;2.22;;
21837;SDS011;11081;45.946;6.140;2023-04-03T13:22:47;2.75;;;2.03;;
21837;SDS011;11081;45.946;6.140;2023-04-03T13:25:19;4.18;;;2.85;;
21837;SDS011;11081;45.946;6.140;2023-04-03T13:27:50;3.85;;;2.67;;
21837;SDS011;11081;45.946;6.140;2023-04-03T13:30:37;2.85;;;2.08;;
21837;SDS011;11081;45.946;6.140;2023-04-03T13:33:18;3.65;;;2.20;;
21837;SDS011;11081;45.946;6.140;2023-04-03T13:35:48;3.00;;;2.20;;
21837;SDS011;11081;45.946;6.140;2023-04-03T13:38:24;3.35;;;2.30;;
21837;SDS011;11081;45.946;6.140;2023-04-03T13:40:54;3.78;;;2.40;;
21837;SDS011;11081;45.946;6.140;2023-04-03T13:43:24;3.63;;;2.63;;
21837;SDS011;11081;45.946;6.140;2023-04-03T13:45:57;2.97;;;2.33;;
21837;SDS011;11081;45.946;6.140;2023-04-03T13:48:35;5.80;;;2.80;;
21837;SDS011;11081;45.946;6.140;2023-04-03T13:51:12;3.72;;;2.25;;
21837;SDS011;11081;45.946;6.140;2023-04-03T13:53:47;4.72;;;2.47;;
21837;SDS011;11081;45.946;6.140;2023-04-03T13:59:06;3.83;;;2.75;;
21837;SDS011;11081;45.946;6.140;2023-04-03T14:01:53;3.45;;;2.50;;
21837;SDS011;11081;45.946;6.140;2023-04-03T14:04:23;2.70;;;2.40;;
21837;SDS011;11081;45.946;6.140;2023-04-03T14:06:54;3.08;;;2.45;;
21837;SDS011;11081;45.946;6.140;2023-04-03T14:09:24;7.10;;;2.60;;
21837;SDS011;11081;45.946;6.140;2023-04-03T14:11:54;3.83;;;2.38;;
21837;SDS011;11081;45.946;6.140;2023-04-03T14:14:26;4.03;;;2.40;;
21837;SDS011;11081;45.946;6.140;2023-04-03T14:16:59;5.15;;;2.35;;
21837;SDS011;11081;45.946;6.140;2023-04-03T14:19:29;4.43;;;2.13;;
21837;SDS011;11081;45.946;6.140;2023-04-03T14:21:58;2.90;;;2.47;;
21837;SDS011;11081;45.946;6.140;2023-04-03T14:24:28;3.63;;;2.33;;
21837;SDS011;11081;45.946;6.140;2023-04-03T14:26:56;2.85;;;2.28;;
21837;SDS011;11081;45.946;6.140;2023-04-03T14:29:25;3.30;;;2.90;;
21837;SDS011;11081;45.946;6.140;2023-04-03T14:31:53;4.63;;;2.60;;
21837;SDS011;11081;45.946;6.140;2023-04-03T14:34:41;2.47;;;2.13;;
21837;SDS011;11081;45.946;6.140;2023-04-03T14:37:10;3.15;;;2.30;;
21837;SDS011;11081;45.946;6.140;2023-04-03T14:39:40;3.05;;;2.70;;
21837;SDS011;11081;45.946;6.140;2023-04-03T14:42:11;3.95;;;2.40;;
21837;SDS011;11081;45.946;6.140;2023-04-03T14:44:41;2.10;;;1.90;;
21837;SDS011;11081;45.946;6.140;2023-04-03T14:47:10;3.13;;;2.58;;
21837;SDS011;11081;45.946;6.140;2023-04-03T14:49:57;4.93;;;2.60;;
21837;SDS011;11081;45.946;6.140;2023-04-03T14:52:26;3.00;;;2.50;;
21837;SDS011;11081;45.946;6.140;2023-04-03T14:54:56;2.60;;;2.25;;
21837;SDS011;11081;45.946;6.140;2023-04-03T14:57:25;6.63;;;2.83;;
21837;SDS011;11081;45.946;6.140;2023-04-03T14:59:55;2.80;;;2.30;;
21837;SDS011;11081;45.946;6.140;2023-04-03T15:02:25;3.65;;;2.58;;
21837;SDS011;11081;45.946;6.140;2023-04-03T15:04:57;3.60;;;2.60;;
21837;SDS011;11081;45.946;6.140;2023-04-03T15:07:26;3.60;;;2.75;;
21837;SDS011;11081;45.946;6.140;2023-04-03T15:09:56;3.40;;;2.70;;
21837;SDS011;11081;45.946;6.140;2023-04-03T15:12:24;4.38;;;2.55;;
21837;SDS011;11081;45.946;6.140;2023-04-03T15:14:52;2.60;;;2.22;;
21837;SDS011;11081;45.946;6.140;2023-04-03T15:17:28;3.92;;;2.60;;
21837;SDS011;11081;45.946;6.140;2023-04-03T15:19:57;6.35;;;2.72;;
21837;SDS011;11081;45.946;6.140;2023-04-03T15:22:26;4.18;;;3.00;;
21837;SDS011;11081;45.946;6.140;2023-04-03T15:24:54;3.30;;;2.78;;
21837;SDS011;11081;45.946;6.140;2023-04-03T15:27:22;2.67;;;2.47;;
21837;SDS011;11081;45.946;6.140;2023-04-03T15:29:50;3.90;;;2.58;;
21837;SDS011;11081;45.946;6.140;2023-04-03T15:32:18;3.05;;;2.25;;
21837;SDS011;11081;45.946;6.140;2023-04-03T15:34:46;3.38;;;2.55;;
21837;SDS011;11081;45.946;6.140;2023-04-03T15:37:15;3.60;;;2.50;;